Time;durP1;ratioP1;P1;durP2;ratioP2;P2;SDS_P1;SDS_P2;PMS_P1;PMS_P2;Temp;Humidity;BMP_temperature;BMP_pressure;BME280_temperature;BME280_humidity;BME280_pressure;Samples;Min_cycle;Max_cycle;Signal;HPM_P1;HPM_P2
2021/08/18 00:00:07;;;;;;;20.58;12.13;;;;;;;11.23;100.00;93345.72;2097541;28;20024;-87
2021/08/18 00:01:08;;;;;;;21.17;12.60;;;;;;;11.18;100.00;93352.28;2097210;28;20422;-85
2021/08/18 00:02:09;;;;;;;21.10;13.05;;;;;;;11.19;100.00;93343.09;2089171;28;20136;-86
2021/08/18 00:03:11;;;;;;;19.95;12.68;;;;;;;11.20;100.00;93351.91;2106158;27;20046;-85
2021/08/18 00:04:12;;;;;;;22.63;11.90;;;;;;;11.15;100.00;93347.00;2106020;28;20118;-88
2021/08/18 00:05:15;;;;;;;21.23;12.45;;;;;;;11.09;100.00;93347.50;2089495;28;20033;-87
2021/08/18 00:06:16;;;;;;;21.20;12.52;;;;;;;11.16;100.00;93349.28;2089588;28;20493;-85
2021/08/18 00:07:17;;;;;;;24.58;12.48;;;;;;;11.20;100.00;93343.88;2097208;28;20028;-86
2021/08/18 00:08:18;;;;;;;19.40;12.48;;;;;;;11.23;100.00;93335.00;2097571;28;20485;-84
2021/08/18 00:09:19;;;;;;;24.30;14.55;;;;;;;11.20;100.00;93341.19;2097689;28;20055;-85
2021/08/18 00:10:20;;;;;;;22.50;12.85;;;;;;;11.20;100.00;93344.63;2097425;28;20035;-86
2021/08/18 00:11:21;;;;;;;22.27;14.35;;;;;;;11.20;100.00;93338.53;2089502;28;20493;-84
2021/08/18 00:12:22;;;;;;;22.73;13.65;;;;;;;11.22;100.00;93336.19;2105760;28;20020;-84
2021/08/18 00:13:24;;;;;;;24.23;14.02;;;;;;;11.22;100.00;93334.25;2105279;28;20500;-85
2021/08/18 00:14:25;;;;;;;26.63;14.50;;;;;;;11.24;100.00;93344.56;2097507;28;20060;-84
2021/08/18 00:15:27;;;;;;;20.70;13.48;;;;;;;11.15;100.00;93341.66;2097291;28;20035;-83
2021/08/18 00:16:29;;;;;;;20.55;12.95;;;;;;;11.16;100.00;93335.16;2097757;28;20020;-86
2021/08/18 00:17:30;;;;;;;23.35;13.88;;;;;;;11.11;100.00;93344.44;2089574;28;20016;-84
2021/08/18 00:18:31;;;;;;;23.10;13.35;;;;;;;11.18;100.00;93346.94;2088966;28;20067;-87
2021/08/18 00:19:32;;;;;;;24.85;13.43;;;;;;;11.20;100.00;93347.31;2097334;28;20024;-85
2021/08/18 00:20:33;;;;;;;22.60;12.85;;;;;;;11.19;100.00;93347.69;2105689;28;20028;-86
2021/08/18 00:21:34;;;;;;;24.52;13.70;;;;;;;11.14;100.00;93348.19;2097621;28;20275;-84
2021/08/18 00:22:35;;;;;;;24.33;13.50;;;;;;;11.19;100.00;93345.03;2097477;28;20020;-86
2021/08/18 00:23:36;;;;;;;23.58;13.32;;;;;;;11.16;100.00;93343.19;2105810;28;20020;-85
2021/08/18 00:24:37;;;;;;;20.67;12.88;;;;;;;11.14;100.00;93342.84;2088623;28;20111;-84
2021/08/18 00:25:38;;;;;;;21.55;12.88;;;;;;;11.10;100.00;93343.66;2088861;28;20021;-84
2021/08/18 00:26:39;;;;;;;20.65;12.23;;;;;;;11.21;100.00;93348.06;2081446;28;20472;-85
2021/08/18 00:27:40;;;;;;;20.67;12.57;;;;;;;11.20;100.00;93338.53;2101511;28;20055;-85
2021/08/18 00:28:41;;;;;;;20.90;12.70;;;;;;;11.20;100.00;93341.94;2101578;28;20029;-86
2021/08/18 00:29:42;;;;;;;28.88;13.10;;;;;;;11.21;100.00;93329.31;2105891;28;20020;-86
2021/08/18 00:30:43;;;;;;;20.90;12.93;;;;;;;11.19;100.00;93331.66;2100997;28;20047;-86
2021/08/18 00:31:44;;;;;;;25.30;13.32;;;;;;;11.16;100.00;93337.84;2090075;28;20024;-84
2021/08/18 00:32:45;;;;;;;26.58;13.85;;;;;;;11.15;100.00;93334.41;2097340;28;20081;-85
2021/08/18 00:33:46;;;;;;;25.30;12.68;;;;;;;11.22;100.00;93339.59;2097603;28;20362;-85
2021/08/18 00:34:47;;;;;;;21.95;13.23;;;;;;;11.20;100.00;93331.25;2097384;28;20032;-84
2021/08/18 00:35:48;;;;;;;22.17;11.82;;;;;;;11.23;100.00;93333.06;2096960;28;20032;-85
2021/08/18 00:36:49;;;;;;;23.20;13.02;;;;;;;11.22;100.00;93334.25;2105430;28;20024;-84
2021/08/18 00:37:50;;;;;;;22.02;13.38;;;;;;;11.14;100.00;93332.13;2113734;28;20023;-86
2021/08/18 00:38:51;;;;;;;19.58;12.15;;;;;;;11.13;100.00;93335.97;2105863;28;20027;-86
2021/08/18 00:39:52;;;;;;;22.50;13.27;;;;;;;11.14;100.00;93338.22;2105833;28;20028;-86
2021/08/18 00:40:53;;;;;;;26.90;13.20;;;;;;;11.21;100.00;93332.00;2097315;28;20024;-87
2021/08/18 00:41:54;;;;;;;25.63;12.93;;;;;;;11.18;100.00;93341.59;2088655;28;20060;-84
2021/08/18 00:42:55;;;;;;;21.25;12.75;;;;;;;11.15;100.00;93328.28;2089118;28;20033;-86
2021/08/18 00:43:56;;;;;;;24.48;12.93;;;;;;;11.16;100.00;93332.50;2088990;28;20049;-84
2021/08/18 00:44:57;;;;;;;23.10;12.68;;;;;;;11.10;100.00;93335.63;2105699;28;20266;-86
2021/08/18 00:45:58;;;;;;;20.67;13.32;;;;;;;11.07;100.00;93331.13;2105322;28;20496;-85
2021/08/18 00:46:59;;;;;;;24.02;13.93;;;;;;;11.11;100.00;93325.69;2096326;28;20036;-85
2021/08/18 00:48:00;;;;;;;23.52;13.07;;;;;;;11.14;100.00;93322.19;2105010;28;20027;-86
2021/08/18 00:49:01;;;;;;;22.27;12.95;;;;;;;11.10;100.00;93330.28;2097125;28;20024;-86
2021/08/18 00:50:02;;;;;;;20.33;12.57;;;;;;;11.18;100.00;93322.88;2105636;28;20031;-86
2021/08/18 00:51:03;;;;;;;21.98;13.45;;;;;;;11.17;100.00;93317.94;2113848;28;20572;-87
2021/08/18 00:52:05;;;;;;;21.25;11.98;;;;;;;11.29;100.00;93323.41;2097163;28;20024;-86
2021/08/18 00:53:06;;;;;;;19.17;11.38;;;;;;;11.25;100.00;93325.41;2105416;28;20020;-83
2021/08/18 00:54:07;;;;;;;20.27;12.68;;;;;;;11.23;100.00;93325.06;2097062;28;20022;-86
2021/08/18 00:55:13;;;;;;;19.50;12.00;;;;;;;11.18;100.00;93319.44;2093143;28;20052;-84
2021/08/18 00:56:14;;;;;;;20.70;12.75;;;;;;;11.18;100.00;93319.44;2102127;28;20024;-84
2021/08/18 00:57:15;;;;;;;22.80;12.68;;;;;;;11.16;100.00;93321.78;2094250;28;20119;-84
2021/08/18 00:58:16;;;;;;;24.63;12.60;;;;;;;11.13;100.00;93320.69;2097161;28;20038;-85
2021/08/18 00:59:17;;;;;;;21.23;11.98;;;;;;;11.13;100.00;93323.34;2096645;28;20028;-83
2021/08/18 01:00:19;;;;;;;20.58;12.20;;;;;;;11.17;100.00;93323.28;2105430;28;20031;-84
2021/08/18 01:01:21;;;;;;;22.77;13.13;;;;;;;11.14;100.00;93322.19;2096871;28;20090;-86
2021/08/18 01:02:22;;;;;;;23.35;12.63;;;;;;;11.11;100.00;93323.03;2097717;28;20037;-85
2021/08/18 01:03:24;;;;;;;24.80;13.35;;;;;;;11.09;100.00;93317.31;2105549;28;20032;-86
2021/08/18 01:04:25;;;;;;;20.92;12.55;;;;;;;11.13;100.00;93314.59;2089024;28;20102;-85
2021/08/18 01:05:28;;;;;;;22.30;13.10;;;;;;;11.13;100.00;93318.00;2088303;28;20482;-85
2021/08/18 01:06:29;;;;;;;20.52;12.25;;;;;;;11.09;100.00;93320.75;2097432;28;20048;-83
2021/08/18 01:07:30;;;;;;;18.88;11.45;;;;;;;11.19;100.00;93323.63;2113858;28;20023;-86
2021/08/18 01:08:31;;;;;;;21.70;12.60;;;;;;;11.14;100.00;93318.75;2105419;28;20050;-87
2021/08/18 01:09:32;;;;;;;22.48;12.18;;;;;;;11.13;100.00;93318.00;2097332;28;20035;-84
2021/08/18 01:10:35;;;;;;;22.00;12.32;;;;;;;11.10;100.00;93322.25;2096785;28;20391;-86
2021/08/18 01:11:38;;;;;;;28.15;12.13;;;;;;;11.15;100.00;93320.25;2097003;28;20119;-86
2021/08/18 01:12:40;;;;;;;23.10;12.63;;;;;;;11.06;100.00;93323.50;2101843;28;20380;-85
2021/08/18 01:13:41;;;;;;;22.50;12.10;;;;;;;11.06;100.00;93329.63;2105518;28;20036;-85
2021/08/18 01:14:42;;;;;;;23.98;12.77;;;;;;;11.08;100.00;93327.28;2097120;28;20025;-83
2021/08/18 01:15:43;;;;;;;18.88;12.43;;;;;;;11.06;100.00;93321.59;2097111;28;20405;-84
2021/08/18 01:16:46;;;;;;;20.00;12.70;;;;;;;11.10;100.00;93319.56;2104548;28;20038;-84
2021/08/18 01:17:49;;;;;;;20.90;12.52;;;;;;;11.13;100.00;93320.69;2105744;28;20040;-85
2021/08/18 01:18:50;;;;;;;20.40;13.13;;;;;;;11.15;100.00;93320.25;2097266;28;20074;-86
2021/08/18 01:19:50;;;;;;;22.83;12.77;;;;;;;11.18;100.00;93319.44;2105393;28;20453;-85
2021/08/18 01:20:51;;;;;;;23.73;13.10;;;;;;;11.19;100.00;93323.63;2088651;28;20062;-85
2021/08/18 01:21:53;;;;;;;20.65;12.50;;;;;;;11.04;100.00;93321.25;2088420;28;20028;-86
2021/08/18 01:22:54;;;;;;;23.75;13.25;;;;;;;11.09;100.00;93325.34;2088259;28;20040;-87
2021/08/18 01:23:55;;;;;;;23.27;12.98;;;;;;;11.21;100.00;93323.97;2088977;28;20025;-86
2021/08/18 01:24:56;;;;;;;23.20;12.43;;;;;;;11.17;100.00;93324.03;2088839;28;20120;-85
2021/08/18 01:25:57;;;;;;;21.17;12.55;;;;;;;11.19;100.00;93326.28;2096828;28;20111;-84
2021/08/18 01:26:58;;;;;;;21.35;12.82;;;;;;;11.20;100.00;93322.47;2096778;28;20094;-86
2021/08/18 01:28:01;;;;;;;20.08;12.30;;;;;;;11.22;100.00;93325.47;2096511;28;20048;-84
2021/08/18 01:29:02;;;;;;;20.15;12.18;;;;;;;11.16;100.00;93330.56;2089122;28;20436;-86
2021/08/18 01:30:06;;;;;;;24.25;13.32;;;;;;;11.18;100.00;93333.56;2097059;28;20033;-84
2021/08/18 01:31:07;;;;;;;23.27;12.23;;;;;;;11.13;100.00;93319.94;2105922;28;20024;-84
2021/08/18 01:32:08;;;;;;;24.00;13.25;;;;;;;11.17;100.00;93332.06;2101177;28;20547;-84
2021/08/18 01:33:14;;;;;;;21.70;13.25;;;;;;;11.18;100.00;93332.81;2096952;28;20470;-86
2021/08/18 01:34:15;;;;;;;22.00;12.63;;;;;;;11.16;100.00;93330.56;2089599;28;20036;-85
2021/08/18 01:35:23;;;;;;;24.52;12.93;;;;;;;11.14;100.00;93324.09;2088747;28;20029;-84
2021/08/18 01:36:24;;;;;;;21.38;12.85;;;;;;;11.19;100.00;93319.00;2090621;28;20100;-87
2021/08/18 01:37:25;;;;;;;25.15;13.27;;;;;;;11.20;100.00;93333.19;2088629;28;20120;-84
2021/08/18 01:38:26;;;;;;;22.70;12.63;;;;;;;11.20;100.00;93328.56;2088772;28;20029;-85
2021/08/18 01:39:27;;;;;;;23.98;13.70;;;;;;;11.19;100.00;93326.28;2092541;28;20036;-85
2021/08/18 01:40:29;;;;;;;21.83;12.80;;;;;;;11.18;100.00;93325.53;2099640;28;20146;-84
2021/08/18 01:41:30;;;;;;;20.27;13.13;;;;;;;11.14;100.00;93321.44;2105393;28;20511;-85
2021/08/18 01:42:31;;;;;;;21.98;13.07;;;;;;;11.12;100.00;93319.19;2096558;28;20030;-84
2021/08/18 01:43:32;;;;;;;22.88;12.88;;;;;;;11.21;100.00;93326.66;2088013;28;20025;-88
2021/08/18 01:44:33;;;;;;;23.48;13.30;;;;;;;11.14;100.00;93322.19;2097301;28;20491;-87
2021/08/18 01:45:41;;;;;;;22.48;12.85;;;;;;;11.21;100.00;93318.63;2104710;28;20028;-85
2021/08/18 01:46:42;;;;;;;20.52;12.35;;;;;;;11.15;100.00;93323.72;2099123;28;20062;-87
2021/08/18 01:47:43;;;;;;;20.77;12.57;;;;;;;11.09;100.00;93323.44;2096596;28;20028;-83
2021/08/18 01:48:44;;;;;;;24.88;13.77;;;;;;;11.08;100.00;93311.22;2088613;28;20064;-84
2021/08/18 01:49:45;;;;;;;21.63;13.55;;;;;;;11.10;100.00;93316.91;2088635;28;20025;-84
2021/08/18 01:50:47;;;;;;;18.92;12.48;;;;;;;11.16;100.00;93325.22;2096773;28;20027;-87
2021/08/18 01:51:48;;;;;;;19.45;12.25;;;;;;;11.12;100.00;93316.50;2096464;28;20074;-85
2021/08/18 01:52:54;;;;;;;18.85;12.05;;;;;;;11.13;100.00;93322.59;2096609;28;20086;-85
2021/08/18 01:53:55;;;;;;;19.27;12.45;;;;;;;11.17;100.00;93325.97;2105340;28;20062;-84
2021/08/18 01:54:55;;;;;;;22.58;12.98;;;;;;;11.11;100.00;93320.34;2088710;28;20017;-83
2021/08/18 01:56:03;;;;;;;22.05;11.88;;;;;;;11.06;100.00;93312.78;2088626;28;20021;-87
2021/08/18 01:57:04;;;;;;;19.15;12.07;;;;;;;11.07;100.00;93320.41;2101317;28;20093;-84
2021/08/18 01:58:05;;;;;;;26.00;13.18;;;;;;;11.12;100.00;93319.19;2088100;28;20512;-85
2021/08/18 01:59:06;;;;;;;21.08;13.57;;;;;;;11.15;100.00;93318.38;2088620;28;20546;-85
2021/08/18 02:00:09;;;;;;;21.65;12.40;;;;;;;11.08;100.00;93324.59;2096776;28;20021;-86
2021/08/18 02:01:15;;;;;;;24.35;13.27;;;;;;;11.07;100.00;93325.78;2093102;28;20028;-85
2021/08/18 02:02:16;;;;;;;30.90;13.30;;;;;;;11.07;100.00;93325.78;2089650;28;20486;-86
2021/08/18 02:03:17;;;;;;;23.40;13.32;;;;;;;11.01;100.00;93322.06;2096001;28;20032;-85
2021/08/18 02:04:18;;;;;;;20.90;12.75;;;;;;;11.09;100.00;93325.34;2105154;28;20024;-84
2021/08/18 02:05:19;;;;;;;20.20;12.60;;;;;;;11.08;100.00;93321.16;2105213;28;20030;-83
2021/08/18 02:06:20;;;;;;;21.65;13.38;;;;;;;11.06;100.00;93323.50;2104962;28;20044;-84
2021/08/18 02:07:21;;;;;;;21.25;13.55;;;;;;;10.99;100.00;93327.06;2105170;28;20159;-86
2021/08/18 02:08:22;;;;;;;23.35;12.85;;;;;;;10.99;100.00;93323.66;2096517;28;20028;-84
2021/08/18 02:09:22;;;;;;;21.88;12.27;;;;;;;11.05;100.00;93324.66;2088349;28;20074;-84
2021/08/18 02:10:23;;;;;;;23.90;12.90;;;;;;;11.07;100.00;93323.09;2086585;28;20528;-86
2021/08/18 02:11:25;;;;;;;22.10;13.05;;;;;;;11.06;100.00;93320.81;2096825;28;20028;-84
2021/08/18 02:12:25;;;;;;;22.90;13.55;;;;;;;11.05;100.00;93322.75;2104919;28;20059;-85
2021/08/18 02:13:27;;;;;;;18.92;12.90;;;;;;;11.05;100.00;93322.00;2096693;28;20396;-86
2021/08/18 02:14:28;;;;;;;25.42;13.10;;;;;;;11.05;100.00;93320.06;2096392;28;20036;-86
2021/08/18 02:15:32;;;;;;;25.92;13.20;;;;;;;11.13;100.00;93312.66;2096632;28;20020;-84
2021/08/18 02:16:33;;;;;;;21.60;12.93;;;;;;;11.04;100.00;93315.88;2097514;28;20032;-87
2021/08/18 02:17:34;;;;;;;19.05;12.60;;;;;;;11.08;100.00;93313.16;2096468;28;20103;-84
2021/08/18 02:18:35;;;;;;;28.08;13.80;;;;;;;11.10;100.00;93311.53;2092838;28;20021;-85
2021/08/18 02:19:36;;;;;;;33.17;13.55;;;;;;;11.09;100.00;93307.38;2100836;28;20066;-86
2021/08/18 02:20:38;;;;;;;22.58;13.00;;;;;;;11.04;100.00;93313.22;2087900;28;20082;-85
2021/08/18 02:21:39;;;;;;;22.02;12.90;;;;;;;10.98;100.00;93308.78;2101308;28;20024;-84
2021/08/18 02:22:40;;;;;;;22.45;12.20;;;;;;;10.98;100.00;93312.19;2101037;28;20113;-85
2021/08/18 02:23:41;;;;;;;24.38;13.20;;;;;;;11.03;100.00;93308.28;2092781;28;20069;-84
2021/08/18 02:24:42;;;;;;;23.83;12.52;;;;;;;11.01;100.00;93305.25;2092784;28;20515;-84
2021/08/18 02:25:43;;;;;;;22.50;13.10;;;;;;;11.01;100.00;93313.28;2096335;28;20031;-87
2021/08/18 02:26:44;;;;;;;20.50;12.50;;;;;;;11.06;100.00;93310.91;2101674;28;20074;-85
2021/08/18 02:27:46;;;;;;;30.30;12.65;;;;;;;11.06;100.00;93304.75;2088201;28;20095;-86
2021/08/18 02:28:47;;;;;;;20.80;12.23;;;;;;;11.00;100.00;93301.84;2097047;28;20513;-83
2021/08/18 02:29:49;;;;;;;21.52;12.93;;;;;;;10.91;100.00;93308.91;2096520;28;20126;-84
2021/08/18 02:30:50;;;;;;;21.77;14.68;;;;;;;10.97;100.00;93308.00;2088605;28;20078;-86
2021/08/18 02:31:51;;;;;;;20.15;12.48;;;;;;;10.97;100.00;93299.22;2096234;28;20501;-84
2021/08/18 02:32:53;;;;;;;21.15;13.23;;;;;;;10.89;100.00;93306.66;2104683;28;20106;-86
2021/08/18 02:33:54;;;;;;;19.52;13.05;;;;;;;10.87;100.00;93300.19;2113749;28;20039;-84
2021/08/18 02:34:55;;;;;;;23.38;12.82;;;;;;;10.87;100.00;93302.88;2113367;28;20027;-85
2021/08/18 02:35:56;;;;;;;21.02;13.02;;;;;;;10.92;100.00;93299.72;2096687;28;20024;-86
2021/08/18 02:36:57;;;;;;;21.67;12.73;;;;;;;10.96;100.00;93301.16;2096502;28;20574;-84
2021/08/18 02:37:59;;;;;;;24.65;13.15;;;;;;;10.91;100.00;93301.63;2087424;28;20284;-86
2021/08/18 02:39:00;;;;;;;21.75;12.82;;;;;;;10.86;100.00;93299.44;2098159;28;20017;-87
2021/08/18 02:40:03;;;;;;;18.90;12.23;;;;;;;10.80;100.00;93303.78;2100779;28;20020;-86
2021/08/18 02:41:04;;;;;;;19.00;11.93;;;;;;;10.81;100.00;93308.72;2101377;28;20423;-86
2021/08/18 02:42:05;;;;;;;20.98;11.45;;;;;;;10.79;100.00;93307.59;2096569;28;20029;-85
2021/08/18 02:43:06;;;;;;;21.55;13.50;;;;;;;10.70;100.00;93308.16;2088050;28;20045;-85
2021/08/18 02:44:07;;;;;;;21.25;12.85;;;;;;;10.79;100.00;93310.28;2096363;28;20033;-84
2021/08/18 02:45:09;;;;;;;23.35;12.93;;;;;;;10.73;100.00;93314.59;2088502;28;20501;-84
2021/08/18 02:46:10;;;;;;;24.92;12.90;;;;;;;10.76;100.00;93305.78;2096879;28;20044;-85
2021/08/18 02:47:10;;;;;;;20.67;13.60;;;;;;;10.65;100.00;93308.63;2104990;28;20035;-85
2021/08/18 02:48:11;;;;;;;21.10;13.13;;;;;;;10.67;100.00;93305.53;2100301;28;20073;-86
2021/08/18 02:49:12;;;;;;;20.70;12.52;;;;;;;10.70;100.00;93310.81;2087875;28;20502;-85
2021/08/18 02:50:16;;;;;;;19.60;12.85;;;;;;;10.70;100.00;93313.50;2096490;28;20032;-85
2021/08/18 02:51:18;;;;;;;23.15;12.65;;;;;;;10.77;100.00;93312.63;2096894;28;20466;-87
2021/08/18 02:52:19;;;;;;;19.95;12.57;;;;;;;10.70;100.00;93310.81;2088756;28;20029;-85
2021/08/18 02:53:20;;;;;;;24.55;13.20;;;;;;;10.69;100.00;93309.31;2088181;28;20029;-86
2021/08/18 02:54:23;;;;;;;21.33;12.40;;;;;;;10.67;100.00;93309.00;2088277;28;20029;-84
2021/08/18 02:55:25;;;;;;;22.40;12.35;;;;;;;10.75;100.00;93304.25;2088682;28;20056;-86
2021/08/18 02:56:26;;;;;;;24.80;13.65;;;;;;;10.74;100.00;93306.16;2088539;28;20029;-86
2021/08/18 02:57:27;;;;;;;20.83;12.75;;;;;;;10.75;100.00;93299.63;2105034;28;20031;-84
2021/08/18 02:58:28;;;;;;;22.77;13.07;;;;;;;10.79;100.00;93305.69;2104528;28;20075;-84
2021/08/18 02:59:29;;;;;;;20.77;12.88;;;;;;;10.82;100.00;93304.88;2088224;28;20021;-83
2021/08/18 03:00:30;;;;;;;19.92;12.10;;;;;;;10.82;100.00;93302.19;2096112;28;20020;-85
2021/08/18 03:01:31;;;;;;;24.67;13.15;;;;;;;10.82;100.00;93298.75;2104554;28;20055;-86
2021/08/18 03:02:32;;;;;;;22.08;12.70;;;;;;;10.76;100.00;93301.19;2088171;28;20021;-83
2021/08/18 03:03:33;;;;;;;21.65;12.95;;;;;;;10.75;100.00;93298.91;2096376;28;20032;-86
2021/08/18 03:04:34;;;;;;;22.40;13.05;;;;;;;10.76;100.00;93303.09;2096983;28;20066;-85
2021/08/18 03:05:35;;;;;;;22.35;12.57;;;;;;;10.73;100.00;93301.25;2088452;28;20021;-86
2021/08/18 03:06:35;;;;;;;18.88;13.10;;;;;;;10.72;100.00;93302.41;2095851;28;20068;-84
2021/08/18 03:07:36;;;;;;;22.05;12.25;;;;;;;10.82;100.00;93293.41;2096378;28;20028;-86
2021/08/18 03:08:37;;;;;;;19.98;12.20;;;;;;;10.89;100.00;93297.84;2088043;28;20063;-86
2021/08/18 03:09:38;;;;;;;21.05;12.30;;;;;;;10.88;100.00;93296.34;2092545;28;20028;-84
2021/08/18 03:10:39;;;;;;;21.60;11.77;;;;;;;10.82;100.00;93306.78;2089610;28;20428;-86
2021/08/18 03:11:40;;;;;;;22.00;13.18;;;;;;;10.78;100.00;93306.09;2098046;28;20024;-87
2021/08/18 03:12:41;;;;;;;21.02;13.38;;;;;;;10.79;100.00;93302.25;2097462;28;20412;-84
2021/08/18 03:13:42;;;;;;;20.25;12.10;;;;;;;10.81;100.00;93302.59;2097847;28;20036;-85
2021/08/18 03:14:43;;;;;;;24.05;12.77;;;;;;;10.89;100.00;93303.19;2098003;28;20043;-87
2021/08/18 03:15:44;;;;;;;21.55;12.88;;;;;;;10.86;100.00;93299.44;2098094;28;20487;-86
2021/08/18 03:16:45;;;;;;;21.38;13.27;;;;;;;10.83;100.00;93301.00;2106340;28;20027;-84
2021/08/18 03:17:46;;;;;;;20.08;12.15;;;;;;;10.82;100.00;93301.44;2106337;28;20016;-84
2021/08/18 03:18:47;;;;;;;22.90;12.38;;;;;;;10.76;100.00;93300.41;2105799;28;20024;-85
2021/08/18 03:19:48;;;;;;;22.17;12.80;;;;;;;10.80;100.00;93299.19;2098004;28;20113;-83
2021/08/18 03:20:49;;;;;;;22.00;12.30;;;;;;;10.88;100.00;93302.44;2097947;28;20465;-85
2021/08/18 03:21:51;;;;;;;22.83;13.65;;;;;;;10.87;100.00;93300.19;2098196;28;20028;-85
2021/08/18 03:22:52;;;;;;;22.50;13.13;;;;;;;10.88;100.00;93296.34;2098018;28;20027;-86
2021/08/18 03:23:53;;;;;;;19.77;12.38;;;;;;;10.76;100.00;93295.06;2105520;28;20028;-84
2021/08/18 03:24:54;;;;;;;22.55;12.27;;;;;;;10.71;100.00;93298.22;2106159;28;20043;-83
2021/08/18 03:25:54;;;;;;;19.02;12.07;;;;;;;10.70;100.00;93296.69;2106329;28;20020;-86
2021/08/18 03:26:55;;;;;;;21.73;12.40;;;;;;;10.75;100.00;93301.56;2106304;28;20107;-85
2021/08/18 03:27:56;;;;;;;26.25;13.20;;;;;;;10.74;100.00;93302.75;2089392;28;20572;-88
2021/08/18 03:28:57;;;;;;;24.58;12.60;;;;;;;10.67;100.00;93305.53;2097920;28;20056;-83
2021/08/18 03:29:58;;;;;;;21.98;12.13;;;;;;;10.65;100.00;93305.22;2097452;28;20032;-85
2021/08/18 03:30:59;;;;;;;20.90;12.50;;;;;;;10.61;100.00;93304.50;2089833;28;20036;-85
2021/08/18 03:32:00;;;;;;;20.10;13.30;;;;;;;10.61;100.00;93305.28;2097943;28;20519;-86
2021/08/18 03:33:01;;;;;;;23.27;12.77;;;;;;;10.60;100.00;93303.75;2097743;28;20025;-84
2021/08/18 03:34:02;;;;;;;22.73;12.90;;;;;;;10.58;100.00;93303.44;2097952;28;20025;-86
2021/08/18 03:35:04;;;;;;;19.45;11.80;;;;;;;10.61;100.00;93297.25;2097899;28;20113;-85
2021/08/18 03:36:05;;;;;;;21.80;13.48;;;;;;;10.61;100.00;93294.56;2097821;28;20111;-84
2021/08/18 03:37:06;;;;;;;20.58;12.77;;;;;;;10.48;100.00;93297.09;2106349;28;20035;-88
2021/08/18 03:38:07;;;;;;;24.77;12.90;;;;;;;10.56;100.00;93303.06;2098197;28;20469;-86
2021/08/18 03:39:08;;;;;;;21.30;12.88;;;;;;;10.62;100.00;93300.69;2101940;28;20526;-85
2021/08/18 03:40:10;;;;;;;21.85;13.57;;;;;;;10.53;100.00;93295.88;2097785;28;20054;-86
2021/08/18 03:41:11;;;;;;;21.30;13.23;;;;;;;10.55;100.00;93288.97;2094042;28;20103;-87
2021/08/18 03:42:12;;;;;;;21.00;13.32;;;;;;;10.50;100.00;93297.47;2097708;28;20028;-86
2021/08/18 03:43:13;;;;;;;24.52;12.50;;;;;;;10.50;100.00;93292.13;2089576;28;20076;-87
2021/08/18 03:44:14;;;;;;;20.63;12.57;;;;;;;10.47;100.00;93300.94;2089566;28;20501;-87
2021/08/18 03:45:15;;;;;;;24.00;12.50;;;;;;;10.58;100.00;93298.84;2089658;28;20076;-85
2021/08/18 03:46:16;;;;;;;23.45;12.77;;;;;;;10.56;100.00;93295.06;2097843;28;20036;-84
2021/08/18 03:47:17;;;;;;;20.67;12.65;;;;;;;10.58;100.00;93298.84;2105502;28;20036;-84
2021/08/18 03:48:18;;;;;;;18.67;12.15;;;;;;;10.55;100.00;93294.31;2097657;28;20028;-86
2021/08/18 03:49:19;;;;;;;21.60;13.27;;;;;;;10.55;100.00;93298.91;2089428;28;20029;-84
2021/08/18 03:50:20;;;;;;;25.05;13.07;;;;;;;10.65;100.00;93295.25;2097591;28;20035;-85
2021/08/18 03:51:21;;;;;;;23.15;13.63;;;;;;;10.64;100.00;93296.44;2106068;28;20388;-84
2021/08/18 03:52:22;;;;;;;20.98;12.77;;;;;;;10.78;100.00;93298.06;2097537;28;20067;-85
2021/08/18 03:53:23;;;;;;;19.17;11.85;;;;;;;10.75;100.00;93298.91;2088935;28;20029;-85
2021/08/18 03:54:24;;;;;;;19.95;12.55;;;;;;;10.75;100.00;93298.91;2097678;28;20036;-86
2021/08/18 03:55:25;;;;;;;23.38;13.43;;;;;;;10.74;100.00;93303.50;2106194;28;20028;-87
2021/08/18 03:56:26;;;;;;;21.50;12.45;;;;;;;10.79;100.00;93304.94;2097614;28;20469;-88
2021/08/18 03:57:26;;;;;;;23.00;13.40;;;;;;;10.76;100.00;93306.53;2097805;28;20485;-84
2021/08/18 03:58:27;;;;;;;24.52;13.02;;;;;;;10.70;100.00;93305.47;2088826;28;20032;-83
2021/08/18 03:59:28;;;;;;;20.48;13.23;;;;;;;10.72;100.00;93305.09;2105688;28;20031;-87
2021/08/18 04:00:29;;;;;;;25.45;12.88;;;;;;;10.73;100.00;93307.34;2097484;28;20033;-86
2021/08/18 04:01:30;;;;;;;21.88;12.73;;;;;;;10.71;100.00;93301.66;2097785;28;20024;-85
2021/08/18 04:02:31;;;;;;;23.83;12.75;;;;;;;10.70;100.00;93307.41;2097573;28;20105;-85
2021/08/18 04:03:33;;;;;;;21.55;12.25;;;;;;;10.71;100.00;93298.22;2089277;28;20094;-85
2021/08/18 04:04:34;;;;;;;22.65;12.13;;;;;;;10.65;100.00;93299.84;2089151;28;20079;-84
2021/08/18 04:05:35;;;;;;;21.08;12.20;;;;;;;10.73;100.00;93299.31;2097640;28;20028;-83
2021/08/18 04:06:36;;;;;;;23.00;12.75;;;;;;;10.71;100.00;93307.00;2105873;28;20139;-83
2021/08/18 04:07:37;;;;;;;19.00;11.93;;;;;;;10.70;100.00;93310.06;2105758;28;20028;-83
2021/08/18 04:08:38;;;;;;;24.95;12.82;;;;;;;10.74;100.00;93300.06;2105845;28;20119;-86
2021/08/18 04:09:39;;;;;;;24.40;11.57;;;;;;;10.73;100.00;93307.34;2097468;28;20035;-86
2021/08/18 04:10:40;;;;;;;25.52;12.88;;;;;;;10.72;100.00;93308.50;2097109;28;20488;-87
2021/08/18 04:11:41;;;;;;;21.17;11.88;;;;;;;10.63;100.00;93305.63;2105831;28;20028;-85
2021/08/18 04:12:49;;;;;;;26.05;12.77;;;;;;;10.67;100.00;93300.19;2105834;28;20177;-84
2021/08/18 04:13:49;;;;;;;23.90;12.65;;;;;;;10.70;100.00;93308.16;2105745;28;20020;-85
2021/08/18 04:14:50;;;;;;;23.92;13.30;;;;;;;10.73;100.00;93301.25;2089107;28;20543;-84
2021/08/18 04:15:51;;;;;;;20.95;11.95;;;;;;;10.73;100.00;93301.25;2097233;28;20081;-85
2021/08/18 04:16:52;;;;;;;21.00;13.18;;;;;;;10.73;100.00;93301.25;2114327;28;20023;-85
2021/08/18 04:17:53;;;;;;;21.48;12.90;;;;;;;10.72;100.00;93305.09;2114236;28;20089;-84
2021/08/18 04:18:54;;;;;;;19.38;11.98;;;;;;;10.74;100.00;93300.06;2097397;28;20556;-85
2021/08/18 04:19:55;;;;;;;22.13;12.55;;;;;;;10.66;100.00;93296.00;2105881;28;20027;-86
2021/08/18 04:20:56;;;;;;;21.38;12.05;;;;;;;10.71;100.00;93303.56;2105504;28;20023;-86
2021/08/18 04:21:57;;;;;;;23.73;12.45;;;;;;;10.69;100.00;93300.56;2088687;28;20476;-85
2021/08/18 04:22:58;;;;;;;21.27;11.55;;;;;;;10.66;100.00;93304.03;2097479;28;20155;-85
2021/08/18 04:23:59;;;;;;;20.83;12.43;;;;;;;10.63;100.00;93299.53;2097417;28;20025;-83
2021/08/18 04:25:00;;;;;;;23.40;12.02;;;;;;;10.67;100.00;93305.53;2097480;28;20543;-86
2021/08/18 04:26:01;;;;;;;21.90;13.77;;;;;;;10.66;100.00;93304.03;2097360;28;20021;-85
2021/08/18 04:27:03;;;;;;;21.52;13.02;;;;;;;10.68;100.00;93304.41;2089180;28;20028;-84
2021/08/18 04:28:04;;;;;;;21.42;12.77;;;;;;;10.70;100.00;93304.72;2097158;28;20046;-84
2021/08/18 04:29:05;;;;;;;20.88;12.48;;;;;;;10.74;100.00;93298.16;2114063;28;20054;-84
2021/08/18 04:30:10;;;;;;;21.58;12.63;;;;;;;10.81;100.00;93299.94;2101456;28;20540;-86
2021/08/18 04:31:10;;;;;;;20.80;12.65;;;;;;;10.86;100.00;93294.09;2098695;28;20358;-85
2021/08/18 04:32:11;;;;;;;22.27;12.30;;;;;;;10.88;100.00;93302.44;2097440;28;20386;-86
2021/08/18 04:33:12;;;;;;;16.42;11.52;;;;;;;10.91;100.00;93300.88;2096981;28;20397;-85
2021/08/18 04:34:13;;;;;;;19.30;11.15;;;;;;;10.82;100.00;93304.88;2097020;28;20036;-85
2021/08/18 04:35:15;;;;;;;21.15;11.65;;;;;;;10.82;100.00;93299.50;2089190;28;20024;-85
2021/08/18 04:36:16;;;;;;;24.45;12.40;;;;;;;10.78;100.00;93295.41;2089453;28;20036;-85
2021/08/18 04:37:17;;;;;;;20.25;11.60;;;;;;;10.80;100.00;93298.44;2089144;28;20057;-87
2021/08/18 04:38:18;;;;;;;25.13;11.77;;;;;;;10.77;100.00;93301.94;2088879;28;20518;-85